Time;durP1;ratioP1;P1;durP2;ratioP2;P2;SDS_P1;SDS_P2;PMS_P1;PMS_P2;Temp;Humidity;BMP_temperature;BMP_pressure;BME280_temperature;BME280_humidity;BME280_pressure;Samples;Min_cycle;Max_cycle;Signal;HPM_P1;HPM_P2
2023/03/31 00:01:18;;;;;;;17.40;4.20;;;;;;;11.32;100.00;100311.09;5029571;28;20339;-68
2023/03/31 00:03:44;;;;;;;15.07;4.40;;;;;;;11.31;100.00;100322.19;5043625;28;20217;-67
2023/03/31 00:06:16;;;;;;;14.73;4.13;;;;;;;11.29;100.00;100316.19;5044929;28;20201;-67
2023/03/31 00:08:42;;;;;;;17.87;4.50;;;;;;;11.27;100.00;100314.47;5043552;28;20216;-67
2023/03/31 00:11:10;;;;;;;17.03;4.37;;;;;;;11.26;100.00;100311.06;5046639;28;20198;-67
2023/03/31 00:13:36;;;;;;;16.87;4.37;;;;;;;11.26;100.00;100303.38;5043041;28;20253;-68
2023/03/31 00:16:07;;;;;;;14.17;4.07;;;;;;;11.26;100.00;100305.94;5049683;28;20200;-67
2023/03/31 00:18:33;;;;;;;15.67;5.03;;;;;;;11.22;100.00;100299.06;5045015;28;20232;-67
2023/03/31 00:21:13;;;;;;;14.77;4.53;;;;;;;11.24;100.00;100302.47;5049367;28;20676;-66
2023/03/31 00:23:41;;;;;;;18.23;4.77;;;;;;;11.29;100.00;100302.53;5044664;28;20214;-66
2023/03/31 00:26:07;;;;;;;16.80;4.50;;;;;;;11.29;100.00;100297.41;5045697;28;20239;-67
2023/03/31 00:28:33;;;;;;;14.10;4.27;;;;;;;11.26;100.00;100292.25;5026838;28;20220;-66
2023/03/31 00:31:01;;;;;;;15.70;4.70;;;;;;;11.28;100.00;100293.97;5024465;28;20653;-67
2023/03/31 00:33:26;;;;;;;13.73;4.37;;;;;;;11.29;100.00;100293.13;5029773;28;20218;-67
2023/03/31 00:35:52;;;;;;;12.37;4.13;;;;;;;11.30;100.00;100296.56;5046427;28;20189;-65
2023/03/31 00:38:20;;;;;;;21.17;4.70;;;;;;;11.34;100.00;100300.88;5027921;28;20214;-66
2023/03/31 00:40:46;;;;;;;17.07;4.37;;;;;;;11.34;100.00;100290.59;5027697;28;20201;-66
2023/03/31 00:43:35;;;;;;;19.20;4.50;;;;;;;11.34;100.00;100300.88;5044077;28;20206;-66
2023/03/31 00:46:14;;;;;;;11.57;3.47;;;;;;;11.37;100.00;100290.59;5046442;28;20268;-66
2023/03/31 00:48:52;;;;;;;17.00;4.50;;;;;;;11.34;100.00;100283.75;5038440;28;20675;-67
2023/03/31 00:51:20;;;;;;;13.13;3.80;;;;;;;11.32;100.00;100287.16;5026040;28;20807;-66
2023/03/31 00:53:56;;;;;;;17.73;4.30;;;;;;;11.30;100.00;100282.00;5029651;28;20229;-66
2023/03/31 00:56:23;;;;;;;13.37;3.73;;;;;;;11.29;100.00;100276.91;5026766;28;20213;-67
2023/03/31 00:58:49;;;;;;;14.77;3.97;;;;;;;11.26;100.00;100277.75;5031087;28;20182;-67
2023/03/31 01:01:23;;;;;;;18.67;4.10;;;;;;;11.26;100.00;100275.19;5044382;28;20182;-65
2023/03/31 01:03:51;;;;;;;16.43;3.67;;;;;;;11.23;100.00;100269.16;5022282;28;20696;-66
2023/03/31 01:06:18;;;;;;;15.67;4.13;;;;;;;11.19;100.00;100265.72;5046117;28;20282;-67
2023/03/31 01:08:47;;;;;;;17.50;4.40;;;;;;;11.12;100.00;100258.84;5023908;28;20226;-67
2023/03/31 01:11:15;;;;;;;14.20;4.37;;;;;;;11.10;100.00;100265.63;5045616;28;20279;-67
2023/03/31 01:13:42;;;;;;;17.03;5.10;;;;;;;11.06;100.00;100256.22;5040411;28;20218;-66
2023/03/31 01:16:08;;;;;;;16.07;3.87;;;;;;;11.01;100.00;100246.78;5044588;28;20246;-67
2023/03/31 01:18:34;;;;;;;15.60;5.17;;;;;;;11.01;100.00;100246.78;5044726;28;20184;-67
2023/03/31 01:21:29;;;;;;;14.00;4.60;;;;;;;10.95;100.00;100249.28;5042859;28;20558;-66
2023/03/31 01:24:01;;;;;;;14.53;4.80;;;;;;;10.89;100.00;100245.00;5024904;28;20206;-67
2023/03/31 01:26:41;;;;;;;20.93;5.00;;;;;;;10.85;100.00;100244.94;5043754;28;20572;-66
2023/03/31 01:29:26;;;;;;;15.17;4.80;;;;;;;10.77;100.00;100247.44;5023301;28;20244;-66
2023/03/31 01:32:14;;;;;;;13.27;5.73;;;;;;;10.73;100.00;100234.59;5026865;28;20221;-66
2023/03/31 01:34:51;;;;;;;17.43;5.83;;;;;;;10.64;100.00;100232.81;5039176;28;20217;-67
2023/03/31 01:37:36;;;;;;;13.33;5.67;;;;;;;10.63;100.00;100236.22;5040875;28;20204;-67
2023/03/31 01:40:13;;;;;;;20.37;6.87;;;;;;;10.58;100.00;100227.63;5042250;28;20276;-66
2023/03/31 01:42:59;;;;;;;14.90;6.70;;;;;;;10.53;100.00;100225.88;5045012;28;20221;-66
2023/03/31 01:45:32;;;;;;;21.23;7.20;;;;;;;10.47;100.00;100216.41;5027481;28;20187;-66
2023/03/31 01:48:11;;;;;;;18.57;7.60;;;;;;;10.41;100.00;100213.81;5028864;28;20653;-67
2023/03/31 01:50:50;;;;;;;18.57;7.30;;;;;;;10.41;100.00;100218.09;5042368;28;20196;-66
2023/03/31 01:53:34;;;;;;;17.87;7.13;;;;;;;10.37;100.00;100212.06;5024801;28;20818;-67
2023/03/31 01:56:29;;;;;;;15.00;6.73;;;;;;;10.33;100.00;100210.31;5041276;28;20637;-67
2023/03/31 01:59:02;;;;;;;22.57;7.63;;;;;;;10.28;100.00;100213.69;5007032;28;20195;-67
2023/03/31 02:01:40;;;;;;;16.03;7.07;;;;;;;10.27;100.00;100217.09;5025913;28;20194;-67
2023/03/31 02:04:20;;;;;;;19.17;7.93;;;;;;;10.22;100.00;100203.38;5041075;28;20308;-66
2023/03/31 02:06:55;;;;;;;18.73;8.23;;;;;;;10.14;100.00;100200.72;5041882;28;20196;-67
2023/03/31 02:09:24;;;;;;;17.20;6.77;;;;;;;10.13;100.00;100200.75;5041335;28;20202;-66
2023/03/31 02:11:51;;;;;;;17.77;7.93;;;;;;;10.15;100.00;100191.38;5027572;28;20185;-66
2023/03/31 02:14:21;;;;;;;15.40;7.47;;;;;;;10.10;100.00;100191.31;5019403;28;20304;-66
2023/03/31 02:16:51;;;;;;;16.47;7.67;;;;;;;10.07;100.00;100188.75;5042545;28;20201;-66
2023/03/31 02:19:20;;;;;;;17.50;7.73;;;;;;;10.08;100.00;100179.34;5045496;28;20231;-66
2023/03/31 02:21:48;;;;;;;19.67;6.80;;;;;;;10.07;100.00;100175.06;5029587;28;20193;-67
2023/03/31 02:24:18;;;;;;;14.87;7.80;;;;;;;10.01;100.00;100168.19;5043206;28;20251;-66
2023/03/31 02:27:04;;;;;;;15.80;6.90;;;;;;;9.99;100.00;100166.44;5022426;28;20190;-66
2023/03/31 02:29:31;;;;;;;22.43;7.57;;;;;;;9.97;100.00;100163.00;5022404;28;20404;-66
2023/03/31 02:32:08;;;;;;;13.43;7.43;;;;;;;9.93;100.00;100166.38;5043440;28;20609;-67
2023/03/31 02:34:34;;;;;;;17.10;7.73;;;;;;;9.91;100.00;100161.22;5026296;28;20591;-67
2023/03/31 02:37:00;;;;;;;16.03;7.30;;;;;;;9.89;100.00;100149.28;5042310;28;20194;-67
2023/03/31 02:39:32;;;;;;;23.17;8.00;;;;;;;9.88;100.00;100152.69;5027646;28;20202;-67
2023/03/31 02:41:58;;;;;;;19.37;8.27;;;;;;;9.82;100.00;100152.63;5025976;28;20209;-67
2023/03/31 02:44:24;;;;;;;17.47;8.00;;;;;;;9.82;100.00;100152.63;5044144;28;20214;-68
2023/03/31 02:46:51;;;;;;;17.13;7.83;;;;;;;9.82;100.00;100150.06;5030128;28;20248;-67
2023/03/31 02:49:18;;;;;;;15.57;6.93;;;;;;;9.80;100.00;100150.03;5026141;28;20705;-67
2023/03/31 02:52:22;;;;;;;14.97;6.73;;;;;;;9.74;100.00;100136.34;5039293;28;20209;-66
2023/03/31 02:55:04;;;;;;;21.60;7.57;;;;;;;9.80;100.00;100137.25;5024662;28;20353;-67
2023/03/31 02:57:36;;;;;;;20.57;7.77;;;;;;;9.76;100.00;100134.63;5039080;28;20189;-67
2023/03/31 03:00:08;;;;;;;16.63;7.63;;;;;;;9.70;100.00;100132.03;5029252;28;20182;-68
2023/03/31 03:03:01;;;;;;;21.47;8.23;;;;;;;9.67;100.00;100124.34;5030817;28;20267;-67
2023/03/31 03:05:57;;;;;;;15.93;7.93;;;;;;;9.66;100.00;100133.69;5029160;28;20578;-67
2023/03/31 03:08:54;;;;;;;11.63;6.77;;;;;;;9.61;100.00;100125.13;5027405;28;20270;-68
2023/03/31 03:11:39;;;;;;;12.47;6.67;;;;;;;9.54;100.00;100123.31;5026748;28;20224;-67
2023/03/31 03:14:29;;;;;;;14.60;6.90;;;;;;;9.53;100.00;100120.75;5032160;28;20270;-67
2023/03/31 03:17:08;;;;;;;19.80;8.23;;;;;;;9.51;100.00;100124.97;5043595;28;20190;-68
2023/03/31 03:19:34;;;;;;;15.90;7.67;;;;;;;9.48;100.00;100115.59;5049252;28;20243;-67
2023/03/31 03:22:00;;;;;;;15.63;7.33;;;;;;;9.47;100.00;100118.13;5044603;28;20247;-67
2023/03/31 03:24:28;;;;;;;15.73;8.50;;;;;;;9.45;100.00;100114.69;5043529;28;20217;-66
2023/03/31 03:26:54;;;;;;;16.43;7.33;;;;;;;9.47;100.00;100108.78;5045775;28;20206;-67
2023/03/31 03:29:19;;;;;;;15.23;7.93;;;;;;;9.43;100.00;100107.00;5046495;28;20568;-67
2023/03/31 03:31:45;;;;;;;20.40;8.10;;;;;;;9.49;100.00;100101.13;5042726;28;20191;-68
2023/03/31 03:34:11;;;;;;;17.53;8.17;;;;;;;9.48;100.00;100101.94;5049193;28;20209;-68
2023/03/31 03:36:37;;;;;;;17.97;8.90;;;;;;;9.49;100.00;100094.28;5045403;28;20198;-68
2023/03/31 03:39:06;;;;;;;17.63;8.17;;;;;;;9.52;100.00;100096.91;5047516;28;20570;-68
2023/03/31 03:41:32;;;;;;;19.63;8.23;;;;;;;9.50;100.00;100105.38;5045015;28;20277;-67
2023/03/31 03:43:59;;;;;;;17.53;8.30;;;;;;;9.50;100.00;100097.72;5044215;28;20290;-67
2023/03/31 03:46:24;;;;;;;16.73;9.27;;;;;;;9.53;100.00;100103.72;5042908;28;20202;-66
2023/03/31 03:48:50;;;;;;;22.43;9.37;;;;;;;9.53;100.00;100097.75;5046140;28;20587;-69
2023/03/31 03:51:15;;;;;;;23.13;9.20;;;;;;;9.57;100.00;100096.94;5044772;28;20187;-68
2023/03/31 03:53:41;;;;;;;15.40;9.17;;;;;;;9.58;100.00;100091.00;5045660;28;20292;-68
2023/03/31 03:56:06;;;;;;;21.80;9.60;;;;;;;9.59;100.00;100083.34;5047238;28;20194;-67
2023/03/31 03:58:32;;;;;;;17.47;9.27;;;;;;;9.59;100.00;100088.44;5043745;28;20721;-67
2023/03/31 04:00:57;;;;;;;18.70;10.10;;;;;;;9.62;100.00;100083.38;5048776;28;20204;-67
2023/03/31 04:03:23;;;;;;;20.43;11.10;;;;;;;9.61;100.00;100079.13;5022757;28;20217;-67
2023/03/31 04:05:49;;;;;;;22.83;10.83;;;;;;;9.62;100.00;100077.41;5048671;28;20215;-68
2023/03/31 04:08:15;;;;;;;22.53;11.23;;;;;;;9.63;100.00;100067.19;5041327;28;20567;-67
2023/03/31 04:10:46;;;;;;;21.87;11.23;;;;;;;9.66;100.00;100066.38;5044123;28;20280;-67
2023/03/31 04:13:11;;;;;;;21.20;11.10;;;;;;;9.69;100.00;100068.97;5043104;28;21162;-68
2023/03/31 04:15:37;;;;;;;23.70;12.60;;;;;;;9.70;100.00;100055.34;5047228;28;20190;-67
2023/03/31 04:18:03;;;;;;;23.73;12.73;;;;;;;9.77;100.00;100055.41;5043286;28;20560;-66
2023/03/31 04:20:29;;;;;;;25.93;13.87;;;;;;;9.83;100.00;100046.94;5028874;28;20209;-67
2023/03/31 04:22:55;;;;;;;28.37;14.27;;;;;;;9.87;100.00;100039.31;5043711;28;20226;-67
2023/03/31 04:25:21;;;;;;;25.70;12.63;;;;;;;9.88;100.00;100035.06;5045339;28;20240;-66
2023/03/31 04:27:54;;;;;;;22.97;13.27;;;;;;;9.89;100.00;100037.63;5041303;28;20190;-66
2023/03/31 04:30:29;;;;;;;24.70;13.10;;;;;;;9.93;100.00;100029.16;5042566;28;20277;-67
2023/03/31 04:33:00;;;;;;;26.10;14.43;;;;;;;9.97;100.00;100024.91;5044366;28;20197;-67
2023/03/31 04:35:41;;;;;;;28.20;13.80;;;;;;;9.96;100.00;100024.03;5045579;28;20197;-67
2023/03/31 04:38:07;;;;;;;25.90;13.23;;;;;;;9.98;100.00;100019.81;5042410;28;20198;-67
2023/03/31 04:40:34;;;;;;;23.67;12.93;;;;;;;9.97;100.00;100007.88;5043454;28;20587;-67
2023/03/31 04:43:00;;;;;;;21.33;12.97;;;;;;;10.00;100.00;100005.31;5043437;28;20603;-68
2023/03/31 04:45:25;;;;;;;25.10;12.13;;;;;;;10.02;100.00;99995.97;5046187;28;20194;-67
2023/03/31 04:47:50;;;;;;;23.27;11.40;;;;;;;10.03;100.00;100000.25;5045776;28;20193;-67
2023/03/31 04:50:16;;;;;;;22.77;11.70;;;;;;;10.07;100.00;99990.91;5042908;28;20197;-67
2023/03/31 04:52:41;;;;;;;24.53;12.17;;;;;;;10.11;100.00;99988.41;5045159;28;20196;-68
2023/03/31 04:55:07;;;;;;;22.80;10.67;;;;;;;10.12;100.00;99979.88;5045827;28;20257;-67
2023/03/31 04:57:33;;;;;;;21.10;10.80;;;;;;;10.14;100.00;99980.75;5044246;28;20225;-66
2023/03/31 04:59:58;;;;;;;20.73;11.30;;;;;;;10.16;100.00;99973.09;5027737;28;20601;-67
2023/03/31 05:02:24;;;;;;;21.13;10.30;;;;;;;10.17;100.00;99973.09;5026299;28;20675;-66
2023/03/31 05:04:50;;;;;;;24.53;11.03;;;;;;;10.20;100.00;99975.69;5041595;28;20614;-67
2023/03/31 05:07:17;;;;;;;23.70;10.67;;;;;;;10.22;100.00;99971.44;5029620;28;20285;-67
2023/03/31 05:09:43;;;;;;;20.33;10.23;;;;;;;10.22;100.00;99971.44;5045160;28;20267;-68
2023/03/31 05:12:08;;;;;;;23.50;10.57;;;;;;;10.24;100.00;99971.44;5026787;28;20682;-68
2023/03/31 05:14:33;;;;;;;19.60;9.83;;;;;;;10.26;100.00;99962.06;5039692;28;20217;-67
2023/03/31 05:16:59;;;;;;;20.33;10.63;;;;;;;10.28;100.00;99962.94;5043072;28;20194;-68
2023/03/31 05:19:24;;;;;;;19.53;9.43;;;;;;;10.28;100.00;99950.97;5040153;28;20191;-67
2023/03/31 05:21:50;;;;;;;18.00;10.13;;;;;;;10.31;100.00;99955.25;5047081;28;20197;-68
2023/03/31 05:24:16;;;;;;;20.10;9.67;;;;;;;10.34;100.00;99945.06;5038764;28;20221;-67
2023/03/31 05:26:47;;;;;;;20.60;9.50;;;;;;;10.37;100.00;99945.09;5046850;28;20231;-67
2023/03/31 05:29:12;;;;;;;33.30;16.23;;;;;;;10.36;100.00;99938.22;5040501;28;20245;-67
2023/03/31 05:31:38;;;;;;;22.23;12.90;;;;;;;10.37;100.00;99932.28;5046951;28;20233;-67
2023/03/31 05:34:04;;;;;;;19.00;9.13;;;;;;;10.38;100.00;99924.63;5042992;28;20213;-67
2023/03/31 05:36:31;;;;;;;18.80;9.17;;;;;;;10.39;100.00;99916.09;5046342;28;20318;-67
2023/03/31 05:38:56;;;;;;;16.47;8.83;;;;;;;10.41;100.00;99905.88;5043104;28;20182;-67
2023/03/31 05:41:21;;;;;;;15.73;7.87;;;;;;;10.41;100.00;99906.72;5044701;28;20259;-67
2023/03/31 05:43:47;;;;;;;15.40;8.40;;;;;;;10.41;100.00;99906.72;5043547;28;20209;-67
2023/03/31 05:46:12;;;;;;;14.47;8.70;;;;;;;10.40;100.00;99910.13;5044665;28;20548;-66
2023/03/31 05:48:38;;;;;;;23.07;9.03;;;;;;;10.41;100.00;99911.81;5043156;28;20698;-67
2023/03/31 05:51:04;;;;;;;15.60;9.03;;;;;;;10.42;100.00;99910.97;5040924;28;20198;-67
2023/03/31 05:53:30;;;;;;;15.97;8.33;;;;;;;10.45;100.00;99910.13;5042263;28;20237;-67
2023/03/31 05:56:01;;;;;;;14.37;7.27;;;;;;;10.47;100.00;99908.44;5041386;28;20196;-67
2023/03/31 05:58:27;;;;;;;16.37;7.93;;;;;;;10.48;100.00;99908.47;5026329;28;20690;-67
2023/03/31 06:01:21;;;;;;;13.30;7.40;;;;;;;10.57;100.00;99907.63;5041040;28;20217;-67
2023/03/31 06:03:47;;;;;;;21.50;7.80;;;;;;;10.60;100.00;99902.53;5038086;28;20260;-67
2023/03/31 06:06:13;;;;;;;20.30;7.83;;;;;;;10.64;100.00;99897.41;5040881;28;20224;-67
2023/03/31 06:08:40;;;;;;;19.57;7.30;;;;;;;10.67;100.00;99892.31;5040300;28;20222;-66
2023/03/31 06:11:10;;;;;;;17.77;6.70;;;;;;;10.70;100.00;99894.88;5040984;28;20669;-67
2023/03/31 06:13:37;;;;;;;12.07;6.50;;;;;;;10.74;100.00;99888.91;5043042;28;20279;-66
2023/03/31 06:16:04;;;;;;;14.40;6.87;;;;;;;10.73;100.00;99902.56;5036603;28;20198;-66
2023/03/31 06:18:30;;;;;;;18.53;7.50;;;;;;;10.76;100.00;99902.59;5043213;28;20240;-66
2023/03/31 06:20:56;;;;;;;18.67;6.73;;;;;;;10.71;100.00;99901.72;5041628;28;20192;-66
2023/03/31 06:23:23;;;;;;;13.27;6.40;;;;;;;10.74;100.00;99903.44;5025039;28;20292;-66
2023/03/31 06:25:49;;;;;;;15.57;7.10;;;;;;;10.73;100.00;99884.66;5042046;28;20741;-66
2023/03/31 06:28:15;;;;;;;15.97;6.87;;;;;;;10.77;100.00;99888.06;5043682;28;20217;-66
2023/03/31 06:30:40;;;;;;;14.77;6.23;;;;;;;10.80;100.00;99888.97;5041446;28;20721;-66
2023/03/31 06:33:06;;;;;;;13.70;6.80;;;;;;;10.84;100.00;99887.25;5044947;28;20194;-66
2023/03/31 06:35:31;;;;;;;14.10;6.37;;;;;;;10.89;100.00;99891.53;5020547;28;20191;-66
2023/03/31 06:37:57;;;;;;;16.53;7.00;;;;;;;10.91;100.00;99883.84;5048976;28;20202;-66
2023/03/31 06:40:23;;;;;;;14.67;6.60;;;;;;;10.95;100.00;99881.31;5025841;28;20193;-66
2023/03/31 06:42:48;;;;;;;15.30;6.77;;;;;;;10.97;100.00;99881.31;5033270;28;20193;-66
2023/03/31 06:45:15;;;;;;;19.00;7.03;;;;;;;11.01;100.00;99883.88;5024999;28;20218;-68
2023/03/31 06:47:41;;;;;;;17.23;6.93;;;;;;;11.05;100.00;99882.16;5047005;28;20620;-67
2023/03/31 06:50:08;;;;;;;16.13;7.30;;;;;;;11.04;100.00;99878.75;5026587;28;20725;-67
2023/03/31 06:52:35;;;;;;;19.77;7.40;;;;;;;11.09;100.00;99881.31;5030482;28;20230;-67
2023/03/31 06:55:00;;;;;;;21.27;6.83;;;;;;;11.12;100.00;99882.19;5044370;28;20229;-67
2023/03/31 06:57:26;;;;;;;14.13;6.27;;;;;;;11.15;100.00;99889.88;5027177;28;20694;-67
2023/03/31 06:59:52;;;;;;;11.70;5.97;;;;;;;11.17;100.00;99880.50;5045311;28;20532;-67
2023/03/31 07:02:17;;;;;;;13.30;6.17;;;;;;;11.25;100.00;99876.22;5043381;28;20196;-67
2023/03/31 07:04:43;;;;;;;13.40;6.00;;;;;;;11.31;100.00;99870.25;5047340;28;20660;-67
2023/03/31 07:07:08;;;;;;;10.40;5.90;;;;;;;11.34;100.00;99872.81;5040855;28;20249;-67
2023/03/31 07:09:34;;;;;;;14.37;6.17;;;;;;;11.31;100.00;99868.56;5046654;28;20237;-68
2023/03/31 07:12:00;;;;;;;14.10;5.67;;;;;;;11.29;100.00;99871.97;5044399;28;20212;-67
2023/03/31 07:14:25;;;;;;;14.73;5.67;;;;;;;11.31;100.00;99865.13;5046045;28;20225;-67
2023/03/31 07:16:51;;;;;;;11.90;5.80;;;;;;;11.44;100.00;99861.72;5040925;28;20193;-68
2023/03/31 07:19:18;;;;;;;13.80;5.60;;;;;;;11.42;100.00;99861.72;5045871;28;20190;-67
2023/03/31 07:21:43;;;;;;;12.17;6.17;;;;;;;11.45;100.00;99856.59;5043802;28;20194;-68
2023/03/31 07:24:09;;;;;;;13.20;5.93;;;;;;;11.52;100.00;99858.28;5047718;28;20216;-68
2023/03/31 07:26:34;;;;;;;13.77;5.70;;;;;;;11.51;100.00;99853.16;5041522;28;20300;-68
2023/03/31 07:29:00;;;;;;;12.40;4.87;;;;;;;11.57;100.00;99855.72;5045041;28;20306;-68
2023/03/31 07:31:25;;;;;;;10.47;5.00;;;;;;;11.58;100.00;99852.31;5042260;28;20244;-68
2023/03/31 07:33:50;;;;;;;13.53;4.47;;;;;;;11.54;100.00;99851.47;5032845;28;20241;-68
2023/03/31 07:36:16;;;;;;;13.07;4.30;;;;;;;11.47;100.00;99844.63;5046836;28;20194;-67
2023/03/31 07:38:44;;;;;;;6.93;4.17;;;;;;;11.52;100.00;99842.06;5049165;28;20217;-68
2023/03/31 07:41:12;;;;;;;13.07;4.90;;;;;;;11.57;100.00;99845.47;5043529;28;20566;-68
2023/03/31 07:43:38;;;;;;;12.87;4.20;;;;;;;11.63;100.00;99835.25;5044191;28;20214;-67
2023/03/31 07:46:04;;;;;;;8.73;3.63;;;;;;;11.66;100.00;99835.25;5046249;28;20193;-68
2023/03/31 07:48:30;;;;;;;7.90;3.80;;;;;;;11.73;100.00;99834.38;5043907;28;20213;-68
2023/03/31 07:50:55;;;;;;;12.67;4.30;;;;;;;11.74;100.00;99836.06;5041694;28;20256;-68
2023/03/31 07:53:28;;;;;;;10.63;3.87;;;;;;;11.89;100.00;99825.78;5025256;28;20245;-67
2023/03/31 07:55:53;;;;;;;9.07;3.37;;;;;;;11.86;100.00;99823.22;5045375;28;20221;-68
2023/03/31 07:58:19;;;;;;;7.47;3.20;;;;;;;11.87;100.00;99827.50;5044682;28;20258;-66
2023/03/31 08:00:44;;;;;;;7.40;2.73;;;;;;;11.87;100.00;99824.94;5046054;28;20201;-69
2023/03/31 08:03:10;;;;;;;7.63;2.90;;;;;;;11.83;100.00;99821.53;5024562;28;20982;-68
2023/03/31 08:05:35;;;;;;;11.87;3.23;;;;;;;11.72;100.00;99819.84;5030774;28;20736;-68
2023/03/31 08:08:01;;;;;;;8.70;3.23;;;;;;;11.72;100.00;99813.00;5045010;28;20267;-68
2023/03/31 08:10:26;;;;;;;8.03;2.37;;;;;;;11.58;100.00;99811.28;5052216;28;20283;-68
2023/03/31 08:12:52;;;;;;;8.20;3.40;;;;;;;11.74;100.00;99808.72;5042948;28;20205;-67
2023/03/31 08:15:18;;;;;;;7.53;2.73;;;;;;;11.69;100.00;99809.56;5026197;28;20368;-68
2023/03/31 08:17:44;;;;;;;7.73;2.57;;;;;;;11.64;100.00;99806.16;5043109;28;20288;-68
2023/03/31 08:20:10;;;;;;;11.10;4.00;;;;;;;11.74;100.00;99803.59;5048865;28;20269;-66
2023/03/31 08:22:36;;;;;;;9.40;3.50;;;;;;;11.75;100.00;99799.31;5030765;28;20414;-67
2023/03/31 08:25:03;;;;;;;6.43;2.63;;;;;;;11.66;100.00;99800.19;5047133;28;20221;-68
2023/03/31 08:27:32;;;;;;;5.93;2.77;;;;;;;11.70;100.00;99801.06;5042497;28;21211;-68
2023/03/31 08:30:01;;;;;;;9.50;3.07;;;;;;;11.66;100.00;99799.34;5047515;28;20699;-68
2023/03/31 08:32:27;;;;;;;11.80;3.60;;;;;;;11.67;100.00;99799.34;5040665;28;20194;-68
2023/03/31 08:34:53;;;;;;;10.50;3.10;;;;;;;11.74;100.00;99798.47;5047426;28;20215;-68
2023/03/31 08:37:18;;;;;;;7.73;2.90;;;;;;;11.73;100.00;99786.50;5040639;28;20659;-66
2023/03/31 08:39:44;;;;;;;10.13;3.20;;;;;;;11.52;100.00;99786.50;5045495;28;20193;-68
2023/03/31 08:42:22;;;;;;;7.80;3.53;;;;;;;11.59;100.00;99782.22;5042155;28;20274;-67
2023/03/31 08:45:10;;;;;;;10.47;3.27;;;;;;;11.60;100.00;99787.38;5039203;28;20323;-68
2023/03/31 08:47:37;;;;;;;7.17;3.40;;;;;;;11.62;100.00;99779.69;5030107;28;20216;-67
2023/03/31 08:50:13;;;;;;;11.03;3.50;;;;;;;11.51;100.00;99776.25;5044367;28;20209;-66
2023/03/31 08:52:51;;;;;;;7.97;3.80;;;;;;;11.32;100.00;99780.56;5042048;28;20193;-67
2023/03/31 08:55:24;;;;;;;9.33;3.60;;;;;;;11.35;100.00;99765.19;5042445;28;20637;-67
2023/03/31 08:58:02;;;;;;;11.93;3.57;;;;;;;11.50;100.00;99765.16;5044822;28;20232;-68
2023/03/31 09:00:38;;;;;;;11.40;3.80;;;;;;;11.56;100.00;99764.28;5024908;28;20659;-68
2023/03/31 09:03:24;;;;;;;8.90;3.53;;;;;;;11.51;100.00;99763.41;5039834;28;20225;-68
2023/03/31 09:06:18;;;;;;;6.73;3.27;;;;;;;11.52;100.00;99758.31;5041098;28;20659;-68
2023/03/31 09:08:43;;;;;;;8.77;3.83;;;;;;;11.51;100.00;99754.03;5039862;28;20210;-67
2023/03/31 09:11:43;;;;;;;6.97;3.10;;;;;;;11.53;100.00;99747.19;5029782;28;20227;-68
2023/03/31 09:14:30;;;;;;;7.97;3.13;;;;;;;11.51;100.00;99741.22;5030695;28;20256;-68
2023/03/31 09:17:11;;;;;;;11.83;3.70;;;;;;;11.55;100.00;99739.50;5040952;28;20197;-68
2023/03/31 09:19:47;;;;;;;5.63;3.13;;;;;;;11.44;100.00;99739.53;5021225;28;20194;-68
2023/03/31 09:22:21;;;;;;;9.13;3.13;;;;;;;11.45;100.00;99737.81;5025321;28;20208;-67
2023/03/31 09:24:54;;;;;;;8.60;3.13;;;;;;;11.54;100.00;99736.09;5044056;28;20216;-68
2023/03/31 09:27:23;;;;;;;5.50;3.43;;;;;;;11.46;100.00;99731.81;5041703;28;20667;-66
2023/03/31 09:29:54;;;;;;;7.83;3.10;;;;;;;11.48;100.00;99730.13;5046125;28;20224;-67
2023/03/31 09:32:22;;;;;;;8.93;3.33;;;;;;;11.52;100.00;99722.41;5041592;28;20198;-67
2023/03/31 09:34:52;;;;;;;7.63;3.20;;;;;;;11.57;100.00;99723.25;5040723;28;20220;-68
2023/03/31 09:37:18;;;;;;;8.60;2.97;;;;;;;11.56;100.00;99718.16;5046549;28;20193;-67
2023/03/31 09:39:44;;;;;;;7.23;3.03;;;;;;;11.58;100.00;99714.72;5038978;28;20188;-65
2023/03/31 09:42:13;;;;;;;7.63;2.97;;;;;;;11.63;100.00;99707.91;5025428;28;20189;-68
2023/03/31 09:44:43;;;;;;;10.30;3.50;;;;;;;11.62;100.00;99705.34;5042039;28;20651;-67
2023/03/31 09:47:42;;;;;;;7.13;2.87;;;;;;;11.71;100.00;99706.13;5042409;28;20276;-68
2023/03/31 09:50:09;;;;;;;6.10;2.80;;;;;;;11.70;100.00;99706.16;5023261;28;20229;-68
2023/03/31 09:52:54;;;;;;;7.47;3.50;;;;;;;11.56;100.00;99697.63;5042073;28;20198;-67
2023/03/31 09:55:25;;;;;;;9.07;3.00;;;;;;;11.62;100.00;99695.06;5035858;28;20217;-67
2023/03/31 09:57:51;;;;;;;6.43;3.20;;;;;;;11.72;100.00;99692.47;5045590;28;20197;-68
2023/03/31 10:00:21;;;;;;;6.33;3.03;;;;;;;11.72;100.00;99689.06;5044343;28;20701;-66
2023/03/31 10:02:51;;;;;;;6.67;3.27;;;;;;;11.70;100.00;99699.31;5028603;28;20908;-67
2023/03/31 10:05:36;;;;;;;9.53;2.87;;;;;;;11.81;100.00;99687.31;5027375;28;20301;-67
2023/03/31 10:08:19;;;;;;;9.20;3.37;;;;;;;11.92;100.00;99684.69;5037301;28;20190;-66
2023/03/31 10:10:50;;;;;;;7.43;3.00;;;;;;;11.82;100.00;99683.88;5047865;28;20189;-68
2023/03/31 10:13:19;;;;;;;5.93;2.93;;;;;;;11.80;100.00;99683.03;5033022;28;20856;-68
2023/03/31 10:15:45;;;;;;;5.47;2.63;;;;;;;11.80;100.00;99680.44;5043572;28;20562;-68
2023/03/31 10:18:16;;;;;;;8.00;2.93;;;;;;;11.80;100.00;99672.75;5047324;28;20189;-67
2023/03/31 10:20:50;;;;;;;6.27;2.43;;;;;;;11.73;100.00;99677.94;5050948;28;20572;-68
2023/03/31 10:23:22;;;;;;;4.57;2.80;;;;;;;11.82;100.00;99667.63;5045130;28;20227;-66
2023/03/31 10:25:48;;;;;;;5.90;2.73;;;;;;;12.05;100.00;99661.53;5047653;28;20646;-66
2023/03/31 10:28:19;;;;;;;4.00;2.90;;;;;;;12.05;100.00;99661.53;5047779;28;20190;-67
2023/03/31 10:31:00;;;;;;;5.60;2.60;;;;;;;12.15;100.00;99659.75;5033556;28;20680;-66
2023/03/31 10:33:28;;;;;;;6.20;3.03;;;;;;;12.11;100.00;99655.50;5048754;28;20259;-68
2023/03/31 10:35:56;;;;;;;2.90;2.43;;;;;;;12.22;100.00;99653.72;5042498;28;20292;-67
2023/03/31 10:38:36;;;;;;;5.17;2.70;;;;;;;12.10;100.00;99654.66;5047352;28;20531;-67
2023/03/31 10:41:02;;;;;;;4.57;2.60;;;;;;;12.15;100.00;99645.22;5029391;28;20257;-67
2023/03/31 10:43:46;;;;;;;6.03;2.77;;;;;;;12.01;100.00;99652.16;5041980;28;20218;-67
2023/03/31 10:46:11;;;;;;;7.13;2.77;;;;;;;12.06;100.00;99646.97;5042428;28;20272;-68
2023/03/31 10:48:40;;;;;;;7.03;2.97;;;;;;;12.03;100.00;99645.28;5043985;28;20745;-67
2023/03/31 10:51:16;;;;;;;5.97;2.23;;;;;;;12.00;100.00;99641.88;5042819;28;20569;-68
2023/03/31 10:53:48;;;;;;;3.40;2.70;;;;;;;12.08;100.00;99646.09;5046411;28;20217;-68
2023/03/31 10:56:25;;;;;;;6.63;2.67;;;;;;;12.03;100.00;99635.00;5045681;28;20221;-68
2023/03/31 10:59:24;;;;;;;6.10;3.03;;;;;;;12.13;100.00;99631.53;5040654;28;20292;-68
2023/03/31 11:01:53;;;;;;;5.17;2.57;;;;;;;12.00;100.00;99634.19;5038904;28;20580;-68
2023/03/31 11:04:28;;;;;;;5.27;2.93;;;;;;;12.08;100.00;99628.13;5026862;28;20210;-67
2023/03/31 11:06:54;;;;;;;3.83;3.20;;;;;;;12.06;100.00;99626.44;5042580;28;20767;-67
2023/03/31 11:09:31;;;;;;;9.03;3.47;;;;;;;12.06;100.00;99626.44;5014727;28;20226;-68
2023/03/31 11:11:57;;;;;;;7.87;3.73;;;;;;;11.94;100.00;99618.84;5043727;28;20221;-68
2023/03/31 11:14:51;;;;;;;7.10;3.43;;;;;;;11.97;100.00;99617.09;5024336;28;20905;-68
2023/03/31 11:17:35;;;;;;;5.43;3.40;;;;;;;11.98;100.00;99621.38;5046098;28;20240;-68
2023/03/31 11:20:07;;;;;;;7.37;3.20;;;;;;;11.87;100.00;99615.47;5042748;28;20182;-68
2023/03/31 11:22:47;;;;;;;5.03;3.20;;;;;;;11.87;100.00;99614.59;5046271;28;20190;-68
2023/03/31 11:25:30;;;;;;;7.20;3.20;;;;;;;11.80;100.00;99611.22;5041601;28;20214;-68
2023/03/31 11:28:19;;;;;;;6.73;3.07;;;;;;;11.91;100.00;99612.03;5030521;28;20285;-67
2023/03/31 11:31:03;;;;;;;8.53;3.90;;;;;;;11.92;100.00;99600.88;5039597;28;20198;-67
2023/03/31 11:33:47;;;;;;;5.23;3.40;;;;;;;11.87;100.00;99606.91;5044720;28;20275;-67